sensor_id;sensor_type;location;lat;lon;timestamp;P1;durP1;ratioP1;P2;durP2;ratioP2
40154;SDS011;25875;48.202;16.334;2022-11-15T00:02:09;46.30;;;26.73;;
40154;SDS011;25875;48.202;16.334;2022-11-15T00:04:36;50.72;;;30.25;;
40154;SDS011;25875;48.202;16.334;2022-11-15T00:07:03;50.63;;;30.67;;
40154;SDS011;25875;48.202;16.334;2022-11-15T00:09:30;52.28;;;30.60;;
40154;SDS011;25875;48.202;16.334;2022-11-15T00:11:57;42.65;;;28.02;;
40154;SDS011;25875;48.202;16.334;2022-11-15T00:14:23;47.00;;;28.88;;
40154;SDS011;25875;48.202;16.334;2022-11-15T00:16:50;44.22;;;28.58;;
40154;SDS011;25875;48.202;16.334;2022-11-15T00:19:18;46.33;;;28.70;;
40154;SDS011;25875;48.202;16.334;2022-11-15T00:21:45;48.72;;;29.15;;
40154;SDS011;25875;48.202;16.334;2022-11-15T00:24:12;48.42;;;28.02;;
40154;SDS011;25875;48.202;16.334;2022-11-15T00:26:38;45.45;;;28.13;;
40154;SDS011;25875;48.202;16.334;2022-11-15T00:29:05;51.28;;;29.88;;
40154;SDS011;25875;48.202;16.334;2022-11-15T00:31:32;45.58;;;27.45;;
40154;SDS011;25875;48.202;16.334;2022-11-15T00:33:59;51.20;;;28.45;;
40154;SDS011;25875;48.202;16.334;2022-11-15T00:36:27;46.10;;;27.88;;
40154;SDS011;25875;48.202;16.334;2022-11-15T00:38:54;44.95;;;26.75;;
40154;SDS011;25875;48.202;16.334;2022-11-15T00:41:21;45.70;;;28.77;;
40154;SDS011;25875;48.202;16.334;2022-11-15T00:43:48;48.05;;;30.50;;
40154;SDS011;25875;48.202;16.334;2022-11-15T00:46:14;50.78;;;28.02;;
40154;SDS011;25875;48.202;16.334;2022-11-15T00:48:41;51.28;;;30.58;;
40154;SDS011;25875;48.202;16.334;2022-11-15T00:51:08;47.50;;;28.98;;
40154;SDS011;25875;48.202;16.334;2022-11-15T00:53:36;49.58;;;30.50;;
40154;SDS011;25875;48.202;16.334;2022-11-15T00:56:03;47.78;;;28.15;;
40154;SDS011;25875;48.202;16.334;2022-11-15T00:58:30;49.35;;;29.48;;
40154;SDS011;25875;48.202;16.334;2022-11-15T01:01:04;41.40;;;26.38;;
40154;SDS011;25875;48.202;16.334;2022-11-15T01:03:32;40.25;;;26.60;;
40154;SDS011;25875;48.202;16.334;2022-11-15T01:05:59;43.65;;;25.98;;
40154;SDS011;25875;48.202;16.334;2022-11-15T01:08:26;38.47;;;23.13;;
40154;SDS011;25875;48.202;16.334;2022-11-15T01:10:54;43.28;;;24.98;;
40154;SDS011;25875;48.202;16.334;2022-11-15T01:13:21;39.67;;;25.02;;
40154;SDS011;25875;48.202;16.334;2022-11-15T01:15:47;40.97;;;26.10;;
40154;SDS011;25875;48.202;16.334;2022-11-15T01:18:14;41.75;;;26.25;;
40154;SDS011;25875;48.202;16.334;2022-11-15T01:20:41;42.35;;;26.65;;
40154;SDS011;25875;48.202;16.334;2022-11-15T01:23:08;39.03;;;24.67;;
40154;SDS011;25875;48.202;16.334;2022-11-15T01:25:35;39.17;;;25.95;;
40154;SDS011;25875;48.202;16.334;2022-11-15T01:28:03;40.63;;;25.50;;
40154;SDS011;25875;48.202;16.334;2022-11-15T01:30:30;41.53;;;24.90;;
40154;SDS011;25875;48.202;16.334;2022-11-15T01:32:56;45.17;;;26.70;;
40154;SDS011;25875;48.202;16.334;2022-11-15T01:35:23;43.22;;;26.83;;
40154;SDS011;25875;48.202;16.334;2022-11-15T01:37:50;40.90;;;25.75;;
40154;SDS011;25875;48.202;16.334;2022-11-15T01:40:17;41.58;;;26.92;;
40154;SDS011;25875;48.202;16.334;2022-11-15T01:42:43;42.60;;;26.73;;
40154;SDS011;25875;48.202;16.334;2022-11-15T01:45:12;41.60;;;24.17;;
40154;SDS011;25875;48.202;16.334;2022-11-15T01:47:41;45.60;;;25.65;;
40154;SDS011;25875;48.202;16.334;2022-11-15T01:50:12;40.55;;;23.50;;
40154;SDS011;25875;48.202;16.334;2022-11-15T01:52:42;41.63;;;25.75;;
40154;SDS011;25875;48.202;16.334;2022-11-15T01:55:11;43.63;;;25.95;;
40154;SDS011;25875;48.202;16.334;2022-11-15T01:57:42;41.78;;;24.55;;
40154;SDS011;25875;48.202;16.334;2022-11-15T02:00:14;43.13;;;24.90;;
40154;SDS011;25875;48.202;16.334;2022-11-15T02:02:41;37.97;;;23.25;;
40154;SDS011;25875;48.202;16.334;2022-11-15T02:05:09;40.83;;;24.23;;
40154;SDS011;25875;48.202;16.334;2022-11-15T02:07:36;40.60;;;24.35;;
40154;SDS011;25875;48.202;16.334;2022-11-15T02:10:04;35.75;;;22.13;;
40154;SDS011;25875;48.202;16.334;2022-11-15T02:12:34;40.65;;;24.23;;
40154;SDS011;25875;48.202;16.334;2022-11-15T02:15:01;39.72;;;25.02;;
40154;SDS011;25875;48.202;16.334;2022-11-15T02:17:33;38.78;;;23.35;;
40154;SDS011;25875;48.202;16.334;2022-11-15T02:20:18;41.45;;;23.77;;
40154;SDS011;25875;48.202;16.334;2022-11-15T02:23:13;42.55;;;25.75;;
40154;SDS011;25875;48.202;16.334;2022-11-15T02:25:57;41.60;;;24.40;;
40154;SDS011;25875;48.202;16.334;2022-11-15T02:28:52;37.63;;;22.88;;
40154;SDS011;25875;48.202;16.334;2022-11-15T02:31:29;37.40;;;23.38;;
40154;SDS011;25875;48.202;16.334;2022-11-15T02:34:08;39.53;;;22.98;;
40154;SDS011;25875;48.202;16.334;2022-11-15T02:36:46;38.78;;;23.38;;
40154;SDS011;25875;48.202;16.334;2022-11-15T02:39:23;38.00;;;24.02;;
40154;SDS011;25875;48.202;16.334;2022-11-15T02:41:59;35.72;;;22.33;;
40154;SDS011;25875;48.202;16.334;2022-11-15T02:44:30;37.67;;;21.52;;
40154;SDS011;25875;48.202;16.334;2022-11-15T02:47:02;42.08;;;25.58;;
40154;SDS011;25875;48.202;16.334;2022-11-15T02:49:43;40.58;;;24.50;;
40154;SDS011;25875;48.202;16.334;2022-11-15T02:52:14;42.55;;;24.95;;
40154;SDS011;25875;48.202;16.334;2022-11-15T02:54:41;41.40;;;24.85;;
40154;SDS011;25875;48.202;16.334;2022-11-15T02:57:10;40.08;;;24.63;;
40154;SDS011;25875;48.202;16.334;2022-11-15T02:59:55;38.75;;;22.23;;
40154;SDS011;25875;48.202;16.334;2022-11-15T03:02:34;39.05;;;23.23;;
40154;SDS011;25875;48.202;16.334;2022-11-15T03:05:10;36.13;;;22.15;;
40154;SDS011;25875;48.202;16.334;2022-11-15T03:07:48;36.83;;;22.42;;
40154;SDS011;25875;48.202;16.334;2022-11-15T03:12:51;34.63;;;22.05;;
40154;SDS011;25875;48.202;16.334;2022-11-15T03:15:23;34.88;;;20.15;;
40154;SDS011;25875;48.202;16.334;2022-11-15T03:17:58;36.40;;;22.27;;
40154;SDS011;25875;48.202;16.334;2022-11-15T03:20:28;38.33;;;23.73;;
40154;SDS011;25875;48.202;16.334;2022-11-15T03:23:00;35.95;;;22.85;;
40154;SDS011;25875;48.202;16.334;2022-11-15T03:25:30;35.30;;;22.50;;
40154;SDS011;25875;48.202;16.334;2022-11-15T03:28:00;37.97;;;22.25;;
40154;SDS011;25875;48.202;16.334;2022-11-15T03:30:30;38.38;;;22.52;;
40154;SDS011;25875;48.202;16.334;2022-11-15T03:33:01;39.33;;;22.77;;
40154;SDS011;25875;48.202;16.334;2022-11-15T03:35:30;37.60;;;22.63;;
40154;SDS011;25875;48.202;16.334;2022-11-15T03:38:05;39.40;;;23.13;;
40154;SDS011;25875;48.202;16.334;2022-11-15T03:40:38;35.03;;;21.90;;
40154;SDS011;25875;48.202;16.334;2022-11-15T03:43:07;36.15;;;22.67;;
40154;SDS011;25875;48.202;16.334;2022-11-15T03:45:40;34.30;;;20.70;;
40154;SDS011;25875;48.202;16.334;2022-11-15T03:48:13;33.15;;;21.17;;
40154;SDS011;25875;48.202;16.334;2022-11-15T03:50:43;32.65;;;21.00;;
40154;SDS011;25875;48.202;16.334;2022-11-15T03:53:12;35.05;;;21.90;;
40154;SDS011;25875;48.202;16.334;2022-11-15T03:55:39;30.45;;;20.90;;
40154;SDS011;25875;48.202;16.334;2022-11-15T03:58:06;36.20;;;22.35;;
40154;SDS011;25875;48.202;16.334;2022-11-15T04:00:33;33.28;;;21.27;;
40154;SDS011;25875;48.202;16.334;2022-11-15T04:03:00;35.97;;;21.65;;
40154;SDS011;25875;48.202;16.334;2022-11-15T04:05:28;39.63;;;23.77;;
40154;SDS011;25875;48.202;16.334;2022-11-15T04:07:55;39.83;;;23.45;;
40154;SDS011;25875;48.202;16.334;2022-11-15T04:10:21;35.67;;;20.58;;
40154;SDS011;25875;48.202;16.334;2022-11-15T04:12:48;32.97;;;20.45;;
40154;SDS011;25875;48.202;16.334;2022-11-15T04:15:16;34.08;;;20.55;;
40154;SDS011;25875;48.202;16.334;2022-11-15T04:17:44;32.58;;;21.23;;
40154;SDS011;25875;48.202;16.334;2022-11-15T04:20:15;35.00;;;21.65;;
40154;SDS011;25875;48.202;16.334;2022-11-15T04:23:03;35.38;;;21.80;;
40154;SDS011;25875;48.202;16.334;2022-11-15T04:25:49;35.75;;;21.13;;
40154;SDS011;25875;48.202;16.334;2022-11-15T04:28:18;33.80;;;21.92;;
40154;SDS011;25875;48.202;16.334;2022-11-15T04:30:45;34.55;;;21.13;;
40154;SDS011;25875;48.202;16.334;2022-11-15T04:33:11;33.08;;;21.45;;
40154;SDS011;25875;48.202;16.334;2022-11-15T04:35:38;32.58;;;21.25;;
40154;SDS011;25875;48.202;16.334;2022-11-15T04:38:07;40.85;;;24.80;;
40154;SDS011;25875;48.202;16.334;2022-11-15T04:40:35;37.90;;;21.90;;
40154;SDS011;25875;48.202;16.334;2022-11-15T04:43:02;33.40;;;22.02;;
40154;SDS011;25875;48.202;16.334;2022-11-15T04:45:29;40.47;;;23.17;;
40154;SDS011;25875;48.202;16.334;2022-11-15T04:47:56;39.25;;;22.65;;
40154;SDS011;25875;48.202;16.334;2022-11-15T04:50:23;36.53;;;22.40;;
40154;SDS011;25875;48.202;16.334;2022-11-15T04:52:50;33.42;;;22.15;;
40154;SDS011;25875;48.202;16.334;2022-11-15T04:55:20;37.53;;;21.48;;
40154;SDS011;25875;48.202;16.334;2022-11-15T04:57:47;36.58;;;21.42;;
40154;SDS011;25875;48.202;16.334;2022-11-15T05:00:15;36.60;;;23.10;;
40154;SDS011;25875;48.202;16.334;2022-11-15T05:02:42;37.15;;;21.10;;
40154;SDS011;25875;48.202;16.334;2022-11-15T05:05:27;36.70;;;21.73;;
40154;SDS011;25875;48.202;16.334;2022-11-15T05:07:54;39.70;;;20.30;;
40154;SDS011;25875;48.202;16.334;2022-11-15T05:10:22;37.53;;;22.98;;
40154;SDS011;25875;48.202;16.334;2022-11-15T05:12:49;44.83;;;26.90;;
40154;SDS011;25875;48.202;16.334;2022-11-15T05:15:15;37.65;;;22.42;;
40154;SDS011;25875;48.202;16.334;2022-11-15T05:17:42;38.38;;;21.23;;
40154;SDS011;25875;48.202;16.334;2022-11-15T05:20:09;40.40;;;22.88;;
40154;SDS011;25875;48.202;16.334;2022-11-15T05:22:36;43.45;;;23.80;;
40154;SDS011;25875;48.202;16.334;2022-11-15T05:25:04;43.53;;;24.10;;
40154;SDS011;25875;48.202;16.334;2022-11-15T05:27:33;42.95;;;24.42;;
40154;SDS011;25875;48.202;16.334;2022-11-15T05:30:00;41.72;;;22.70;;
40154;SDS011;25875;48.202;16.334;2022-11-15T05:32:27;43.03;;;25.48;;
40154;SDS011;25875;48.202;16.334;2022-11-15T05:34:54;40.92;;;24.77;;
40154;SDS011;25875;48.202;16.334;2022-11-15T05:37:21;39.15;;;22.60;;
40154;SDS011;25875;48.202;16.334;2022-11-15T05:39:48;42.20;;;22.40;;
40154;SDS011;25875;48.202;16.334;2022-11-15T05:42:15;42.13;;;23.90;;
40154;SDS011;25875;48.202;16.334;2022-11-15T05:44:44;43.05;;;23.10;;
40154;SDS011;25875;48.202;16.334;2022-11-15T05:47:15;41.38;;;24.13;;
40154;SDS011;25875;48.202;16.334;2022-11-15T05:49:44;41.10;;;23.75;;
40154;SDS011;25875;48.202;16.334;2022-11-15T05:52:14;44.70;;;24.63;;
40154;SDS011;25875;48.202;16.334;2022-11-15T05:54:43;39.78;;;22.13;;
40154;SDS011;25875;48.202;16.334;2022-11-15T05:57:10;39.28;;;24.75;;
40154;SDS011;25875;48.202;16.334;2022-11-15T05:59:37;42.90;;;25.90;;
40154;SDS011;25875;48.202;16.334;2022-11-15T06:02:07;45.90;;;25.92;;
40154;SDS011;25875;48.202;16.334;2022-11-15T06:04:34;45.83;;;24.98;;
40154;SDS011;25875;48.202;16.334;2022-11-15T06:07:00;36.67;;;22.92;;
40154;SDS011;25875;48.202;16.334;2022-11-15T06:09:28;48.13;;;26.38;;
40154;SDS011;25875;48.202;16.334;2022-11-15T06:11:54;41.20;;;22.52;;
40154;SDS011;25875;48.202;16.334;2022-11-15T06:14:21;43.10;;;25.30;;
40154;SDS011;25875;48.202;16.334;2022-11-15T06:16:48;47.63;;;25.25;;
40154;SDS011;25875;48.202;16.334;2022-11-15T06:19:16;42.20;;;24.00;;
40154;SDS011;25875;48.202;16.334;2022-11-15T06:21:42;38.58;;;22.90;;
40154;SDS011;25875;48.202;16.334;2022-11-15T06:24:09;38.03;;;22.08;;
40154;SDS011;25875;48.202;16.334;2022-11-15T06:26:36;36.65;;;23.05;;
40154;SDS011;25875;48.202;16.334;2022-11-15T06:29:03;43.42;;;24.80;;
40154;SDS011;25875;48.202;16.334;2022-11-15T06:31:30;37.53;;;23.70;;
40154;SDS011;25875;48.202;16.334;2022-11-15T06:33:57;41.50;;;23.80;;
40154;SDS011;25875;48.202;16.334;2022-11-15T06:36:25;44.80;;;25.17;;
40154;SDS011;25875;48.202;16.334;2022-11-15T06:38:52;44.35;;;25.73;;
40154;SDS011;25875;48.202;16.334;2022-11-15T06:41:18;45.65;;;22.95;;
40154;SDS011;25875;48.202;16.334;2022-11-15T06:43:46;39.28;;;23.20;;
40154;SDS011;25875;48.202;16.334;2022-11-15T06:46:13;37.67;;;22.83;;
40154;SDS011;25875;48.202;16.334;2022-11-15T06:48:39;36.25;;;22.48;;
40154;SDS011;25875;48.202;16.334;2022-11-15T06:51:06;39.17;;;22.05;;
40154;SDS011;25875;48.202;16.334;2022-11-15T06:53:34;41.08;;;23.02;;
40154;SDS011;25875;48.202;16.334;2022-11-15T06:56:01;38.15;;;22.08;;
40154;SDS011;25875;48.202;16.334;2022-11-15T06:58:29;41.28;;;24.40;;
40154;SDS011;25875;48.202;16.334;2022-11-15T07:01:00;45.65;;;25.75;;
40154;SDS011;25875;48.202;16.334;2022-11-15T07:03:28;36.17;;;23.17;;
40154;SDS011;25875;48.202;16.334;2022-11-15T07:05:56;39.42;;;21.30;;
40154;SDS011;25875;48.202;16.334;2022-11-15T07:08:23;36.90;;;20.00;;
40154;SDS011;25875;48.202;16.334;2022-11-15T07:10:54;33.55;;;20.23;;
40154;SDS011;25875;48.202;16.334;2022-11-15T07:13:25;33.30;;;18.63;;
40154;SDS011;25875;48.202;16.334;2022-11-15T07:15:52;34.80;;;20.70;;
40154;SDS011;25875;48.202;16.334;2022-11-15T07:18:19;28.58;;;17.65;;
40154;SDS011;25875;48.202;16.334;2022-11-15T07:20:46;31.55;;;19.63;;
40154;SDS011;25875;48.202;16.334;2022-11-15T07:23:13;34.22;;;19.50;;
40154;SDS011;25875;48.202;16.334;2022-11-15T07:25:40;32.85;;;21.48;;
40154;SDS011;25875;48.202;16.334;2022-11-15T07:28:08;31.50;;;19.33;;
40154;SDS011;25875;48.202;16.334;2022-11-15T07:30:35;30.50;;;21.42;;
40154;SDS011;25875;48.202;16.334;2022-11-15T07:33:01;31.10;;;18.60;;
40154;SDS011;25875;48.202;16.334;2022-11-15T07:35:28;31.55;;;19.45;;
40154;SDS011;25875;48.202;16.334;2022-11-15T07:37:56;37.85;;;19.77;;
40154;SDS011;25875;48.202;16.334;2022-11-15T07:40:24;40.78;;;21.88;;
40154;SDS011;25875;48.202;16.334;2022-11-15T07:42:51;34.50;;;21.13;;
40154;SDS011;25875;48.202;16.334;2022-11-15T07:45:23;41.35;;;20.75;;
40154;SDS011;25875;48.202;16.334;2022-11-15T07:47:52;43.25;;;24.13;;
40154;SDS011;25875;48.202;16.334;2022-11-15T07:50:19;39.95;;;22.20;;
40154;SDS011;25875;48.202;16.334;2022-11-15T07:52:46;42.72;;;24.27;;
40154;SDS011;25875;48.202;16.334;2022-11-15T07:55:13;44.45;;;24.27;;
40154;SDS011;25875;48.202;16.334;2022-11-15T07:57:40;43.75;;;24.98;;
40154;SDS011;25875;48.202;16.334;2022-11-15T08:00:07;43.28;;;23.50;;
40154;SDS011;25875;48.202;16.334;2022-11-15T08:02:36;38.85;;;21.40;;
40154;SDS011;25875;48.202;16.334;2022-11-15T08:05:03;50.45;;;26.98;;
40154;SDS011;25875;48.202;16.334;2022-11-15T08:07:30;43.40;;;24.35;;
40154;SDS011;25875;48.202;16.334;2022-11-15T08:09:57;46.50;;;23.77;;
40154;SDS011;25875;48.202;16.334;2022-11-15T08:12:26;36.95;;;24.17;;
40154;SDS011;25875;48.202;16.334;2022-11-15T08:14:53;43.03;;;22.67;;
40154;SDS011;25875;48.202;16.334;2022-11-15T08:17:20;41.05;;;23.73;;
40154;SDS011;25875;48.202;16.334;2022-11-15T08:19:48;44.40;;;24.67;;
40154;SDS011;25875;48.202;16.334;2022-11-15T08:22:15;49.20;;;26.45;;
40154;SDS011;25875;48.202;16.334;2022-11-15T08:24:42;44.58;;;25.45;;
40154;SDS011;25875;48.202;16.334;2022-11-15T08:27:09;48.00;;;28.38;;
40154;SDS011;25875;48.202;16.334;2022-11-15T08:29:41;52.20;;;28.33;;
40154;SDS011;25875;48.202;16.334;2022-11-15T08:32:09;47.67;;;28.30;;
40154;SDS011;25875;48.202;16.334;2022-11-15T08:34:36;42.33;;;24.77;;
40154;SDS011;25875;48.202;16.334;2022-11-15T08:37:04;42.85;;;26.55;;
40154;SDS011;25875;48.202;16.334;2022-11-15T08:39:31;45.25;;;25.13;;
40154;SDS011;25875;48.202;16.334;2022-11-15T08:41:58;44.97;;;23.90;;
40154;SDS011;25875;48.202;16.334;2022-11-15T08:44:25;39.38;;;22.90;;
40154;SDS011;25875;48.202;16.334;2022-11-15T08:46:52;43.70;;;26.65;;
40154;SDS011;25875;48.202;16.334;2022-11-15T08:49:18;42.38;;;24.77;;
40154;SDS011;25875;48.202;16.334;2022-11-15T08:51:45;47.20;;;26.50;;
40154;SDS011;25875;48.202;16.334;2022-11-15T08:54:13;46.10;;;25.50;;
40154;SDS011;25875;48.202;16.334;2022-11-15T08:56:40;46.30;;;27.02;;
40154;SDS011;25875;48.202;16.334;2022-11-15T08:59:10;50.58;;;28.60;;
40154;SDS011;25875;48.202;16.334;2022-11-15T09:01:36;43.92;;;24.48;;
40154;SDS011;25875;48.202;16.334;2022-11-15T09:04:03;43.88;;;24.23;;
40154;SDS011;25875;48.202;16.334;2022-11-15T09:06:30;39.65;;;23.00;;
40154;SDS011;25875;48.202;16.334;2022-11-15T09:08:57;43.13;;;24.48;;
40154;SDS011;25875;48.202;16.334;2022-11-15T09:11:33;41.55;;;23.83;;
40154;SDS011;25875;48.202;16.334;2022-11-15T09:14:00;41.80;;;24.58;;
40154;SDS011;25875;48.202;16.334;2022-11-15T09:16:27;44.13;;;26.23;;
40154;SDS011;25875;48.202;16.334;2022-11-15T09:18:54;49.47;;;26.13;;
40154;SDS011;25875;48.202;16.334;2022-11-15T09:21:20;44.00;;;25.35;;
40154;SDS011;25875;48.202;16.334;2022-11-15T09:23:49;38.80;;;23.60;;
40154;SDS011;25875;48.202;16.334;2022-11-15T09:26:16;39.10;;;23.27;;
40154;SDS011;25875;48.202;16.334;2022-11-15T09:28:45;43.13;;;24.05;;
40154;SDS011;25875;48.202;16.334;2022-11-15T09:31:12;43.22;;;24.48;;
40154;SDS011;25875;48.202;16.334;2022-11-15T09:33:38;37.85;;;24.52;;
40154;SDS011;25875;48.202;16.334;2022-11-15T09:36:06;39.67;;;23.60;;
40154;SDS011;25875;48.202;16.334;2022-11-15T09:38:34;40.28;;;24.33;;
40154;SDS011;25875;48.202;16.334;2022-11-15T09:41:19;40.25;;;24.02;;
40154;SDS011;25875;48.202;16.334;2022-11-15T09:44:18;38.03;;;23.10;;
40154;SDS011;25875;48.202;16.334;2022-11-15T09:47:08;41.40;;;24.23;;
40154;SDS011;25875;48.202;16.334;2022-11-15T09:49:51;43.13;;;25.80;;
40154;SDS011;25875;48.202;16.334;2022-11-15T09:52:19;43.03;;;24.77;;
40154;SDS011;25875;48.202;16.334;2022-11-15T09:54:48;40.78;;;24.10;;
40154;SDS011;25875;48.202;16.334;2022-11-15T09:57:18;46.33;;;25.88;;
40154;SDS011;25875;48.202;16.334;2022-11-15T09:59:58;43.97;;;26.50;;
40154;SDS011;25875;48.202;16.334;2022-11-15T10:02:39;42.63;;;25.13;;
40154;SDS011;25875;48.202;16.334;2022-11-15T10:05:19;38.42;;;24.98;;
40154;SDS011;25875;48.202;16.334;2022-11-15T10:07:50;49.47;;;27.13;;
40154;SDS011;25875;48.202;16.334;2022-11-15T10:10:25;43.53;;;27.00;;
40154;SDS011;25875;48.202;16.334;2022-11-15T10:12:56;50.20;;;26.98;;
40154;SDS011;25875;48.202;16.334;2022-11-15T10:15:25;42.95;;;26.30;;
40154;SDS011;25875;48.202;16.334;2022-11-15T10:18:02;42.17;;;24.27;;
40154;SDS011;25875;48.202;16.334;2022-11-15T10:20:34;40.63;;;25.33;;
40154;SDS011;25875;48.202;16.334;2022-11-15T10:23:11;43.60;;;26.92;;
40154;SDS011;25875;48.202;16.334;2022-11-15T10:25:40;42.83;;;24.92;;
40154;SDS011;25875;48.202;16.334;2022-11-15T10:28:09;45.80;;;25.88;;
40154;SDS011;25875;48.202;16.334;2022-11-15T10:30:42;48.40;;;28.95;;
40154;SDS011;25875;48.202;16.334;2022-11-15T10:33:20;43.72;;;27.20;;
40154;SDS011;25875;48.202;16.334;2022-11-15T10:38:55;45.78;;;27.13;;
40154;SDS011;25875;48.202;16.334;2022-11-15T10:44:22;43.95;;;25.42;;
40154;SDS011;25875;48.202;16.334;2022-11-15T10:50:26;49.88;;;27.88;;
40154;SDS011;25875;48.202;16.334;2022-11-15T10:52:55;46.28;;;27.80;;
40154;SDS011;25875;48.202;16.334;2022-11-15T10:55:23;50.95;;;28.58;;
40154;SDS011;25875;48.202;16.334;2022-11-15T10:57:54;55.53;;;29.63;;
40154;SDS011;25875;48.202;16.334;2022-11-15T11:00:27;60.80;;;31.08;;
40154;SDS011;25875;48.202;16.334;2022-11-15T11:02:57;58.53;;;32.10;;
40154;SDS011;25875;48.202;16.334;2022-11-15T11:05:28;50.95;;;30.30;;
40154;SDS011;25875;48.202;16.334;2022-11-15T11:08:00;50.75;;;27.80;;
40154;SDS011;25875;48.202;16.334;2022-11-15T11:10:28;53.55;;;32.00;;
40154;SDS011;25875;48.202;16.334;2022-11-15T11:12:55;51.95;;;29.60;;
40154;SDS011;25875;48.202;16.334;2022-11-15T11:15:22;53.97;;;29.98;;
40154;SDS011;25875;48.202;16.334;2022-11-15T11:18:01;56.33;;;29.85;;
40154;SDS011;25875;48.202;16.334;2022-11-15T11:20:38;51.25;;;30.23;;
40154;SDS011;25875;48.202;16.334;2022-11-15T11:23:14;50.47;;;30.87;;
40154;SDS011;25875;48.202;16.334;2022-11-15T11:26:03;63.95;;;29.00;;
40154;SDS011;25875;48.202;16.334;2022-11-15T11:28:44;59.25;;;28.77;;
40154;SDS011;25875;48.202;16.334;2022-11-15T11:31:20;53.80;;;30.90;;
40154;SDS011;25875;48.202;16.334;2022-11-15T11:33:57;54.05;;;32.58;;
40154;SDS011;25875;48.202;16.334;2022-11-15T11:36:35;56.25;;;31.80;;
40154;SDS011;25875;48.202;16.334;2022-11-15T11:39:14;49.35;;;29.00;;
40154;SDS011;25875;48.202;16.334;2022-11-15T11:41:50;50.03;;;28.25;;
40154;SDS011;25875;48.202;16.334;2022-11-15T11:44:28;52.17;;;28.67;;
40154;SDS011;25875;48.202;16.334;2022-11-15T11:47:00;51.67;;;30.27;;
40154;SDS011;25875;48.202;16.334;2022-11-15T11:49:31;54.33;;;30.30;;
40154;SDS011;25875;48.202;16.334;2022-11-15T11:52:05;53.90;;;30.63;;
40154;SDS011;25875;48.202;16.334;2022-11-15T11:54:39;51.13;;;29.13;;
40154;SDS011;25875;48.202;16.334;2022-11-15T11:57:13;52.22;;;28.95;;
40154;SDS011;25875;48.202;16.334;2022-11-15T11:59:49;50.03;;;28.17;;
40154;SDS011;25875;48.202;16.334;2022-11-15T12:02:21;54.80;;;31.77;;
40154;SDS011;25875;48.202;16.334;2022-11-15T12:04:57;44.05;;;26.60;;
40154;SDS011;25875;48.202;16.334;2022-11-15T12:07:35;52.60;;;28.65;;
40154;SDS011;25875;48.202;16.334;2022-11-15T12:10:11;46.95;;;28.13;;
40154;SDS011;25875;48.202;16.334;2022-11-15T12:12:47;47.97;;;28.08;;
40154;SDS011;25875;48.202;16.334;2022-11-15T12:15:20;44.90;;;27.40;;
40154;SDS011;25875;48.202;16.334;2022-11-15T12:17:50;43.75;;;28.45;;
40154;SDS011;25875;48.202;16.334;2022-11-15T12:20:18;43.88;;;27.27;;
40154;SDS011;25875;48.202;16.334;2022-11-15T12:22:50;42.70;;;26.67;;
40154;SDS011;25875;48.202;16.334;2022-11-15T12:25:22;43.30;;;25.42;;
40154;SDS011;25875;48.202;16.334;2022-11-15T12:27:55;46.45;;;26.95;;
40154;SDS011;25875;48.202;16.334;2022-11-15T12:30:31;46.40;;;26.57;;
40154;SDS011;25875;48.202;16.334;2022-11-15T12:33:28;47.03;;;26.60;;
40154;SDS011;25875;48.202;16.334;2022-11-15T12:36:08;46.90;;;28.70;;
40154;SDS011;25875;48.202;16.334;2022-11-15T12:38:51;41.13;;;25.85;;
40154;SDS011;25875;48.202;16.334;2022-11-15T12:41:21;43.38;;;26.23;;
40154;SDS011;25875;48.202;16.334;2022-11-15T12:43:51;42.85;;;26.67;;
40154;SDS011;25875;48.202;16.334;2022-11-15T12:46:22;42.75;;;24.95;;
40154;SDS011;25875;48.202;16.334;2022-11-15T12:52:11;41.03;;;25.27;;
40154;SDS011;25875;48.202;16.334;2022-11-15T12:57:55;35.17;;;22.70;;
40154;SDS011;25875;48.202;16.334;2022-11-15T13:00:43;41.83;;;25.88;;
40154;SDS011;25875;48.202;16.334;2022-11-15T13:03:23;43.38;;;26.05;;
40154;SDS011;25875;48.202;16.334;2022-11-15T13:06:01;43.00;;;26.92;;
40154;SDS011;25875;48.202;16.334;2022-11-15T13:17:16;45.33;;;27.95;;
40154;SDS011;25875;48.202;16.334;2022-11-15T13:19:52;40.70;;;25.33;;
40154;SDS011;25875;48.202;16.334;2022-11-15T13:22:21;36.05;;;24.48;;
40154;SDS011;25875;48.202;16.334;2022-11-15T13:25:13;41.90;;;25.02;;
40154;SDS011;25875;48.202;16.334;2022-11-15T13:27:44;37.40;;;23.80;;
40154;SDS011;25875;48.202;16.334;2022-11-15T13:30:13;36.63;;;24.58;;
40154;SDS011;25875;48.202;16.334;2022-11-15T13:32:47;42.50;;;26.15;;
40154;SDS011;25875;48.202;16.334;2022-11-15T13:35:18;37.63;;;27.25;;
40154;SDS011;25875;48.202;16.334;2022-11-15T13:37:46;37.35;;;24.65;;
40154;SDS011;25875;48.202;16.334;2022-11-15T13:40:22;39.75;;;25.65;;
40154;SDS011;25875;48.202;16.334;2022-11-15T13:42:52;41.28;;;24.52;;
40154;SDS011;25875;48.202;16.334;2022-11-15T13:45:19;35.67;;;23.33;;
40154;SDS011;25875;48.202;16.334;2022-11-15T13:47:53;34.08;;;22.80;;
40154;SDS011;25875;48.202;16.334;2022-11-15T13:50:21;39.78;;;25.52;;
40154;SDS011;25875;48.202;16.334;2022-11-15T13:52:51;37.15;;;25.17;;
40154;SDS011;25875;48.202;16.334;2022-11-15T13:55:20;36.30;;;24.50;;
40154;SDS011;25875;48.202;16.334;2022-11-15T13:57:52;36.72;;;25.20;;
40154;SDS011;25875;48.202;16.334;2022-11-15T14:00:25;35.17;;;23.55;;
40154;SDS011;25875;48.202;16.334;2022-11-15T14:02:55;41.67;;;26.75;;
40154;SDS011;25875;48.202;16.334;2022-11-15T14:05:24;38.15;;;24.30;;
40154;SDS011;25875;48.202;16.334;2022-11-15T14:07:54;37.25;;;24.88;;
40154;SDS011;25875;48.202;16.334;2022-11-15T14:10:27;36.55;;;24.67;;
40154;SDS011;25875;48.202;16.334;2022-11-15T14:12:56;33.63;;;22.67;;
40154;SDS011;25875;48.202;16.334;2022-11-15T14:15:25;37.63;;;25.70;;
40154;SDS011;25875;48.202;16.334;2022-11-15T14:17:57;34.35;;;22.52;;
40154;SDS011;25875;48.202;16.334;2022-11-15T14:20:27;36.00;;;23.13;;
40154;SDS011;25875;48.202;16.334;2022-11-15T14:22:58;36.65;;;24.35;;
40154;SDS011;25875;48.202;16.334;2022-11-15T14:25:27;35.05;;;23.48;;
40154;SDS011;25875;48.202;16.334;2022-11-15T14:30:55;35.65;;;23.77;;
40154;SDS011;25875;48.202;16.334;2022-11-15T14:33:27;29.33;;;20.25;;
40154;SDS011;25875;48.202;16.334;2022-11-15T14:35:57;32.22;;;22.67;;
40154;SDS011;25875;48.202;16.334;2022-11-15T14:38:25;33.45;;;22.90;;
40154;SDS011;25875;48.202;16.334;2022-11-15T14:40:52;30.45;;;20.45;;
40154;SDS011;25875;48.202;16.334;2022-11-15T14:43:22;32.03;;;21.98;;
40154;SDS011;25875;48.202;16.334;2022-11-15T14:45:49;32.97;;;23.55;;
40154;SDS011;25875;48.202;16.334;2022-11-15T14:48:16;30.05;;;21.27;;
40154;SDS011;25875;48.202;16.334;2022-11-15T14:50:44;36.10;;;25.33;;
40154;SDS011;25875;48.202;16.334;2022-11-15T14:53:11;34.10;;;23.55;;
40154;SDS011;25875;48.202;16.334;2022-11-15T14:55:40;34.17;;;23.42;;
40154;SDS011;25875;48.202;16.334;2022-11-15T14:58:07;36.63;;;26.90;;